• Join FlightAware (Why Join?)
  • Login
  • US Flag 
03:48AM EDT


 

Airport Tracker/Info


-or-


 

Live Flight TrackerFlight Track Log ✈ SKW5535 ✈ 03-Jul-2014 ✈ KDEN - KMSO

Flight Track Log - Related Links

Times and Time Zones

All times are in EDT time to prevent confusion due to time zone crossing. See the SKW5535 flight status page for this flight to view local times or setup timezone preferences in your user account.

Time Position Orientation Groundspeed Altitude Reporting Facility
EDT Latitude Longitude Course Direction KTS MPH feet Rate Location/Type
12:15PM 39.9167 -104.7000 349° North 189 217 6,900  Level Denver TRACON
12:16PM 39.9833 -104.7167 349° North 276 318 8,000 1,680 Climbing Denver TRACON
12:17PM 40.0833 -104.7500 346° North 287 330 10,500 1,980 Climbing Denver TRACON
12:18PM 40.1667 -104.7833 343° North 314 361 12,400 1,560 Climbing Denver TRACON
12:19PM 40.2500 -104.8333 335° Northwest 361 415 13,900 1,620 Climbing Denver TRACON
12:20PM 40.3358 -104.8672 343° North 346 398 15,700 1,560 Climbing Denver Center
12:22PM 40.5333 -104.9667 339° North 374 430 18,900 1,560 Climbing Denver TRACON
12:23PM 40.6417 -105.0117 343° North 381 438 20,600 1,320 Climbing Denver Center
12:24PM 40.7322 -105.0519 341° North 373 429 21,700 1,080 Climbing Denver Center
12:25PM 40.8256 -105.1325 327° Northwest 384 442 22,900 1,380 Climbing Denver Center
12:26PM 40.9297 -105.2528 319° Northwest 407 468 24,600 1,500 Climbing Denver Center
12:27PM 41.0164 -105.3539 319° Northwest 413 475 26,000 1,140 Climbing Denver Center
12:29PM 41.1939 -105.5544 320° Northwest 421 484 28,300 960 Climbing Denver Center
12:31PM 41.3717 -105.7714 318° Northwest 435 501 30,100 960 Climbing Denver Center
12:32PM 41.4664 -105.9222 310° West 443 510 31,300 1,080 Climbing Denver Center
12:33PM 41.5492 -106.0522 310° West 442 509 32,400 1,020 Climbing Denver Center
12:34PM 41.6258 -106.1697 311° West 438 504 33,500 720 Climbing Denver Center
12:35PM 41.7000 -106.2869 310° West 437 503 34,000 480 Climbing Denver Center
12:36PM 41.7872 -106.4261 310° West 436 502 34,600 720 Climbing Denver Center
12:37PM 41.8617 -106.5442 310° West 437 503 35,500 960 Climbing Denver Center
12:38PM 41.9436 -106.6789 309° West 424 488 36,700 960 Climbing Denver Center
12:39PM 42.0144 -106.7917 310° West 415 478 37,600 600 Climbing Denver Center
12:40PM 42.0942 -106.9225 309° West 410 472 38,000 180 Climbing Denver Center
12:41PM 42.1647 -107.0358 310° West 411 473 38,000  Level Denver Center
12:44PM 42.3411 -107.3269 307° West 418 481 38,000  Level Salt Lake Center
12:45PM 42.4019 -107.4272 309° West 426 490 38,000  Level Denver Center
12:46PM 42.4742 -107.5450 310° West 426 490 38,000  Level Denver Center
12:47PM 42.5558 -107.6803 309° West 418 481 38,000  Level Denver Center
12:48PM 42.6250 -107.7964 309° West 416 479 38,000  Level Denver Center
12:50PM 42.7978 -108.0869 308° West 416 479 38,000  Level Salt Lake Center
12:53PM 43.0189 -108.4664 309° West 415 478 38,000  Level Salt Lake Center
12:54PM 43.0919 -108.5914 309° West 416 479 38,000  Level Salt Lake Center
12:55PM 43.1633 -108.7158 308° West 416 479 38,000  Level Salt Lake Center
12:56PM 43.2336 -108.8372 308° West 414 476 38,000  Level Salt Lake Center
12:57PM 43.3053 -108.9606 309° West 414 476 38,000  Level Salt Lake Center
12:58PM 43.3897 -109.1069 308° West 411 473 38,000  Level Salt Lake Center
12:59PM 43.3946 -109.1286 309° West  Level FlightAware Approximate
12:59PM 43.4606 -109.2311 308° West 411 473 38,000  Level Salt Lake Center
01:00PM 43.5314 -109.3544 308° West 411 473 38,000  Level Salt Lake Center
01:01PM 43.6067 -109.4875 308° West 412 474 38,000  Level Salt Lake Center
01:02PM 43.6778 -109.6117 308° West 412 474 38,000  Level Salt Lake Center
01:03PM 43.7481 -109.7383 308° West 413 475 38,000  Level Salt Lake Center
01:04PM 43.8192 -109.8633 308° West 413 475 38,000  Level Salt Lake Center
01:06PM 43.8883 -109.9881 308° West 413 475 38,000  Level Salt Lake Center
01:07PM 43.9728 -110.1403 308° West 413 475 38,000  Level Salt Lake Center
01:08PM 44.0439 -110.2686 308° West 417 480 38,000  Level Salt Lake Center
01:09PM 44.1142 -110.3958 308° West 417 480 38,000  Level Salt Lake Center
01:10PM 44.1842 -110.5242 307° West 417 480 38,000  Level Salt Lake Center
01:11PM 44.2528 -110.6522 307° West 415 478 38,000  Level Salt Lake Center
01:12PM 44.3228 -110.7806 307° West 416 479 38,000  Level Salt Lake Center
01:13PM 44.4072 -110.9361 307° West 418 481 38,000  Level Salt Lake Center
01:14PM 44.4761 -111.0656 307° West 418 481 38,000  Level Salt Lake Center
01:15PM 44.5461 -111.1961 307° West 420 483 38,000  Level Salt Lake Center
01:17PM 44.6953 -111.4792 307° West 420 483 38,000  Level Salt Lake Center
01:21PM 44.9733 -112.0122 318° Northwest 423 487 38,000  Level Salt Lake Center
01:22PM 45.0431 -112.1467 306° West 424 488 38,000  Level Salt Lake Center
01:24PM 45.1969 -112.4481 325° Northwest 430 495 38,000  Level Salt Lake Center
01:25PM 45.2719 -112.5814 309° West 430 495 38,000 -840 Level Salt Lake Center
01:26PM 45.2709 -112.5819 318° Northwest  Level FlightAware Approximate
01:27PM 45.3779 -112.7327 315° West  Level FlightAware Approximate
01:27PM 45.4725 -112.8200 315° West 436 502 35,500  Level Salt Lake Center
01:28PM 45.5814 -112.9125 329° Northwest 441 507 33,300 -2,280 Descending Salt Lake Center
01:29PM 45.6903 -113.0069 329° Northwest 448 516 30,800 -2,400 Descending Salt Lake Center
01:30PM 45.7983 -113.1014 329° Northwest 449 517 28,400 -2,400 Descending Salt Lake Center
01:32PM 46.0150 -113.2878 329° Northwest 443 510 23,400 -2,460 Descending Salt Lake Center
01:33PM 46.1258 -113.3825 329° Northwest 427 491 20,800 -1,920 Descending Salt Lake Center
01:38PM 46.4931 -113.7108 North 365 420 13,500 -1,800 Descending Salt Lake Center
01:39PM 46.5756 -113.7864 328° Northwest 355 409 11,500 -1,740 Descending Salt Lake Center
01:40PM 46.6589 -113.8631 328° Northwest 333 383 10,000 -1,140 Descending Salt Lake Center
01:41PM 46.7203 -113.9256 325° Northwest 273 314 9,200 -1,500 Descending Salt Lake Center
01:42PM 46.8937 -114.0707 306° West  Level FlightAware Approximate
01:43PM 46.9000 -114.0833 North  Level FlightAware Approximate
01:43PM 46.8278 -114.0194 329° Northwest 222 255 5,500  Level Salt Lake Center
01:44PM 46.8794 -114.0261 355° North 186 214 4,100 -1,080 Descending Salt Lake Center
01:45PM 46.9056 -114.0744 308° West 156 180 3,300 -780 Descending Salt Lake Center
01:47PM 46.9000 -114.0833 North  Level FlightAware Approximate
01:54PM 46.9163 -114.0906 North  Level Estimated
01:55PM 46.9163 -114.0906 North  Level Estimated
01:56PM 46.9163 -114.0906 North  Level Estimated
01:57PM 46.9163 -114.0906 North  Level Estimated
01:58PM 46.9163 -114.0906 North  Level Estimated
01:59PM 46.9163 -114.0906 North  Level Estimated
02:00PM 46.9163 -114.0906 North  Level Estimated
02:01PM 46.9163 -114.0906 North  Level Estimated
02:02PM 46.9163 -114.0906 North  Level Estimated